createdAt,value
2023-03-24T00:00:01.934Z,100312.13
2023-03-24T00:02:52.584Z,100350.19
2023-03-24T00:05:36.816Z,100347.16
2023-03-24T00:08:22.556Z,100346.19
2023-03-24T00:11:09.310Z,100303.75
2023-03-24T00:13:58.689Z,100349.97
2023-03-24T00:16:43.775Z,100328.66
2023-03-24T00:19:27.873Z,100310.81
2023-03-24T00:22:14.594Z,100346.94
2023-03-24T00:24:58.578Z,100340.28
2023-03-24T00:27:44.947Z,100352.19
2023-03-24T00:30:31.720Z,100308.28
2023-03-24T00:33:15.762Z,100346.25
2023-03-24T00:36:00.059Z,100295.31
2023-03-24T00:38:44.299Z,100257.28
2023-03-24T00:41:29.118Z,100339.53
2023-03-24T00:44:18.078Z,100336.66
2023-03-24T00:47:04.695Z,100302.97
2023-03-24T00:49:51.132Z,100327.72
2023-03-24T00:52:35.613Z,100324.59
2023-03-24T00:55:21.640Z,100309.69
2023-03-24T00:58:06.011Z,100326.56
2023-03-24T01:00:57.279Z,100282.13
2023-03-24T01:03:50.802Z,100302.06
2023-03-24T01:06:37.890Z,100318.75
2023-03-24T01:09:22.882Z,100280.78
2023-03-24T01:12:07.394Z,100312.94
2023-03-24T01:14:52.414Z,100305.66
2023-03-24T01:17:36.604Z,100241.97
2023-03-24T01:20:23.275Z,100281.56
2023-03-24T01:23:09.054Z,100269.34
2023-03-24T01:25:54.367Z,100315.25
2023-03-24T01:28:41.166Z,100314.06
2023-03-24T01:31:25.467Z,100315.34
2023-03-24T01:34:09.738Z,100315.44
2023-03-24T01:36:55.350Z,100314.84
2023-03-24T01:39:39.600Z,100310.59
2023-03-24T01:42:26.752Z,100304.41
2023-03-24T01:45:44.201Z,100306.97
2023-03-24T01:48:34.526Z,100312.00
2023-03-24T01:51:22.935Z,100239.25
2023-03-24T01:54:13.264Z,100313.72
2023-03-24T01:57:05.212Z,100305.28
2023-03-24T01:59:56.272Z,100292.13
2023-03-24T02:03:18.536Z,100273.69
2023-03-24T02:06:11.345Z,100311.72
2023-03-24T02:08:57.662Z,100315.47
2023-03-24T02:11:46.378Z,100303.84
2023-03-24T02:14:31.308Z,100298.91
2023-03-24T02:17:54.767Z,100305.50
2023-03-24T02:21:09.406Z,100314.34
2023-03-24T02:24:57.894Z,100318.16
2023-03-24T02:28:05.985Z,100311.78
2023-03-24T02:31:18.442Z,100326.94
2023-03-24T02:34:41.200Z,100328.84
2023-03-24T02:38:01.111Z,100294.81
2023-03-24T02:40:50.883Z,100339.53
2023-03-24T02:43:48.379Z,100303.31
2023-03-24T02:46:38.012Z,100346.97
2023-03-24T02:49:32.541Z,100351.78
2023-03-24T02:52:23.183Z,100310.44
2023-03-24T02:55:16.570Z,100260.94
2023-03-24T02:58:07.467Z,100302.00
2023-03-24T03:01:08.784Z,100343.50
2023-03-24T03:04:20.055Z,100310.44
2023-03-24T03:07:09.884Z,100356.00
2023-03-24T03:10:00.275Z,100318.19
2023-03-24T03:12:48.107Z,100327.41
2023-03-24T03:15:39.308Z,100347.72
2023-03-24T03:18:29.430Z,100351.03
2023-03-24T03:21:16.226Z,100313.47
2023-03-24T03:24:03.751Z,100315.34
2023-03-24T03:26:50.272Z,100338.22
2023-03-24T03:29:39.661Z,100306.75
2023-03-24T03:32:29.810Z,100288.38
2023-03-24T03:35:18.548Z,100285.09
2023-03-24T03:38:14.201Z,100303.38
2023-03-24T03:41:00.636Z,100285.16
2023-03-24T03:43:51.110Z,100319.28
2023-03-24T03:46:37.010Z,100271.91
2023-03-24T03:49:26.613Z,100322.41
2023-03-24T03:52:11.091Z,100327.34
2023-03-24T03:54:56.769Z,100309.06
2023-03-24T03:57:41.373Z,100297.88
2023-03-24T04:00:26.319Z,100298.72
2023-03-24T04:03:57.989Z,100325.09
2023-03-24T04:07:14.085Z,100321.72
2023-03-24T04:10:09.900Z,100287.75
2023-03-24T04:13:09.754Z,100309.28
2023-03-24T04:16:23.909Z,100235.56
2023-03-24T04:19:47.309Z,100276.13
2023-03-24T04:22:41.556Z,100319.72
2023-03-24T04:25:56.852Z,100291.72
2023-03-24T04:28:48.865Z,100328.06
2023-03-24T04:31:37.427Z,100303.16
2023-03-24T04:34:29.584Z,100317.94
2023-03-24T04:37:25.849Z,100341.19
2023-03-24T04:40:21.126Z,100297.69
2023-03-24T04:43:08.634Z,100312.03
2023-03-24T04:45:53.753Z,100294.16
2023-03-24T04:48:49.403Z,100300.84
2023-03-24T04:51:51.995Z,100303.59
2023-03-24T04:54:40.604Z,100316.06
2023-03-24T04:57:26.736Z,100347.13
2023-03-24T05:00:18.661Z,100316.63
2023-03-24T05:03:03.032Z,100321.00
2023-03-24T05:05:50.345Z,100341.97
2023-03-24T05:08:34.489Z,100325.66
2023-03-24T05:11:18.433Z,100359.50
2023-03-24T05:14:12.613Z,100363.66
2023-03-24T05:16:56.861Z,100358.19
2023-03-24T05:19:41.728Z,100315.72
2023-03-24T05:22:26.000Z,100361.41
2023-03-24T05:25:11.181Z,100363.13
2023-03-24T05:27:56.027Z,100342.19
2023-03-24T05:30:44.412Z,100363.28
2023-03-24T05:33:46.194Z,100349.44
2023-03-24T05:36:34.202Z,100357.00
2023-03-24T05:39:18.429Z,100383.28
2023-03-24T05:42:12.662Z,100307.25
2023-03-24T05:44:56.640Z,100386.75
2023-03-24T05:47:45.895Z,100389.75
2023-03-24T05:50:30.152Z,100377.66
2023-03-24T05:53:14.164Z,100367.75
2023-03-24T05:56:28.104Z,100373.84
2023-03-24T05:59:15.604Z,100391.03
2023-03-24T06:02:26.035Z,100357.75
2023-03-24T06:05:17.938Z,100361.41
2023-03-24T06:08:02.130Z,100358.44
2023-03-24T06:10:49.654Z,100364.63
2023-03-24T06:13:33.733Z,100359.00
2023-03-24T06:16:19.089Z,100375.84
2023-03-24T06:19:11.112Z,100389.28
2023-03-24T06:22:28.753Z,100396.56
2023-03-24T06:25:13.863Z,100401.34
2023-03-24T06:28:04.443Z,100368.59
2023-03-24T06:30:50.534Z,100361.84
2023-03-24T06:33:43.750Z,100361.34
2023-03-24T06:36:27.863Z,100393.06
2023-03-24T06:39:13.969Z,100388.59
2023-03-24T06:41:58.231Z,100393.31
2023-03-24T06:44:42.745Z,100382.31
2023-03-24T06:47:26.975Z,100390.00
2023-03-24T06:50:12.512Z,100357.69
2023-03-24T06:52:56.649Z,100346.75
2023-03-24T06:55:43.210Z,100396.34
2023-03-24T06:58:29.282Z,100387.03
2023-03-24T07:01:21.654Z,100387.50
2023-03-24T07:04:08.974Z,100394.00
2023-03-24T07:10:31.411Z,100380.94
2023-03-24T07:13:16.980Z,100395.03
2023-03-24T07:16:01.186Z,100390.06
2023-03-24T07:18:45.662Z,100392.81
2023-03-24T07:21:29.855Z,100351.66
2023-03-24T07:24:13.964Z,100368.53
2023-03-24T07:27:12.295Z,100390.09
2023-03-24T07:29:57.669Z,100351.50
2023-03-24T07:32:54.822Z,100398.28
2023-03-24T07:35:39.334Z,100386.34
2023-03-24T07:38:24.240Z,100396.09
2023-03-24T07:41:11.367Z,100391.47
2023-03-24T07:43:59.773Z,100398.06
2023-03-24T07:46:51.474Z,100396.25
2023-03-24T07:49:35.757Z,100367.88
2023-03-24T07:52:23.524Z,100325.84
2023-03-24T07:55:13.337Z,100368.75
2023-03-24T07:58:11.577Z,100397.00
2023-03-24T08:00:59.873Z,100385.44
2023-03-24T08:03:56.401Z,100398.34
2023-03-24T08:07:00.387Z,100365.59
2023-03-24T08:09:44.788Z,100392.84
2023-03-24T08:12:28.681Z,100360.44
2023-03-24T08:15:13.207Z,100399.63
2023-03-24T08:17:57.835Z,100364.94
2023-03-24T08:20:44.240Z,100360.75
2023-03-24T08:23:28.496Z,100389.72
2023-03-24T08:26:12.554Z,100398.06
2023-03-24T08:28:57.048Z,100399.09
2023-03-24T08:31:41.153Z,100356.47
2023-03-24T08:34:25.331Z,100378.63
2023-03-24T08:37:12.126Z,100343.06
2023-03-24T08:39:58.909Z,100344.78
2023-03-24T08:42:43.190Z,100341.13
2023-03-24T08:45:30.736Z,100346.06
2023-03-24T08:48:14.882Z,100352.34
2023-03-24T08:50:58.942Z,100363.53
2023-03-24T08:53:44.686Z,100333.84
2023-03-24T08:56:29.240Z,100380.38
2023-03-24T08:59:13.208Z,100377.88
2023-03-24T09:01:57.330Z,100343.00
2023-03-24T09:04:42.745Z,100342.53
2023-03-24T09:07:26.876Z,100377.66
2023-03-24T09:10:13.139Z,100377.53
2023-03-24T09:12:57.230Z,100348.41
2023-03-24T09:15:41.380Z,100353.56
2023-03-24T09:18:25.924Z,100351.94
2023-03-24T09:21:10.133Z,100330.25
2023-03-24T09:23:54.338Z,100361.91
2023-03-24T09:26:39.930Z,100348.47
2023-03-24T09:29:23.835Z,100310.25
2023-03-24T09:32:07.984Z,100353.97
2023-03-24T09:34:52.359Z,100324.25
2023-03-24T09:37:38.640Z,100352.53
2023-03-24T09:40:26.103Z,100349.81
2023-03-24T09:43:23.264Z,100313.28
2023-03-24T09:46:12.865Z,100339.56
2023-03-24T09:48:58.280Z,100345.38
2023-03-24T09:51:45.353Z,100343.78
2023-03-24T09:54:37.929Z,100315.66
2023-03-24T09:57:27.332Z,100294.19
2023-03-24T10:00:20.488Z,100331.19
2023-03-24T10:03:19.517Z,100325.47
2023-03-24T10:06:09.569Z,100327.34
2023-03-24T10:09:06.191Z,100288.31
2023-03-24T10:11:57.525Z,100320.66
2023-03-24T10:14:53.328Z,100323.72
2023-03-24T10:17:47.813Z,100312.59
2023-03-24T10:20:38.882Z,100273.28
2023-03-24T10:23:31.298Z,100327.53
2023-03-24T10:26:29.695Z,100312.50
2023-03-24T10:29:26.178Z,100296.50
2023-03-24T10:32:16.757Z,100249.78
2023-03-24T10:35:09.781Z,100328.50
2023-03-24T10:37:54.446Z,100309.63
2023-03-24T10:40:38.547Z,100315.91
2023-03-24T10:43:23.675Z,100312.78
2023-03-24T10:46:08.182Z,100261.63
2023-03-24T10:48:54.703Z,100302.69
2023-03-24T10:51:41.520Z,100301.44
2023-03-24T10:54:27.741Z,100267.88
2023-03-24T10:57:19.649Z,100272.50
2023-03-24T11:00:15.008Z,100257.44
2023-03-24T11:03:02.031Z,100246.63
2023-03-24T11:05:47.135Z,100265.44
2023-03-24T11:08:37.833Z,100281.34
2023-03-24T11:11:31.300Z,100254.41
2023-03-24T11:14:25.504Z,100249.06
2023-03-24T11:17:15.463Z,100280.63
2023-03-24T11:19:59.591Z,100279.25
2023-03-24T11:22:45.858Z,100281.94
2023-03-24T11:25:47.180Z,100281.59
2023-03-24T11:28:36.676Z,100221.16
2023-03-24T11:31:24.752Z,100268.34
2023-03-24T11:34:12.394Z,100231.34
2023-03-24T11:36:59.463Z,100253.41
2023-03-24T11:39:44.411Z,100229.53
2023-03-24T11:42:30.144Z,100271.53
2023-03-24T11:45:24.659Z,100237.28
2023-03-24T11:48:23.409Z,100262.66
2023-03-24T11:51:12.618Z,100259.59
2023-03-24T11:53:58.374Z,100233.94
2023-03-24T11:56:45.951Z,100245.84
2023-03-24T11:59:37.729Z,100219.66
2023-03-24T12:02:32.020Z,100241.88
2023-03-24T12:05:29.263Z,100252.38
2023-03-24T12:08:41.125Z,100222.81
2023-03-24T12:11:34.326Z,100241.63
2023-03-24T12:14:30.859Z,100249.75
2023-03-24T12:17:18.812Z,100233.88
2023-03-24T12:20:24.125Z,100237.13
2023-03-24T12:23:14.577Z,100196.94
2023-03-24T12:26:16.876Z,100225.44
2023-03-24T12:29:24.998Z,100226.50
2023-03-24T12:32:22.913Z,100238.81
2023-03-24T12:35:41.629Z,100233.06
2023-03-24T12:38:41.471Z,100191.41
2023-03-24T12:41:46.090Z,100233.19
2023-03-24T12:45:04.984Z,100211.56
2023-03-24T12:48:13.718Z,100214.19
2023-03-24T12:51:10.402Z,100183.75
2023-03-24T12:54:09.551Z,100222.22
2023-03-24T12:56:57.319Z,100217.13
2023-03-24T12:59:46.099Z,100198.94
2023-03-24T13:02:35.555Z,100180.25
2023-03-24T13:05:26.606Z,100167.72
2023-03-24T13:08:17.822Z,100166.56
2023-03-24T13:11:07.010Z,100200.19
2023-03-24T13:13:51.259Z,100184.31
2023-03-24T13:16:39.349Z,100200.00
2023-03-24T13:19:26.233Z,100166.84
2023-03-24T13:22:18.332Z,100142.38
2023-03-24T13:25:04.137Z,100179.44
2023-03-24T13:27:54.888Z,100197.56
2023-03-24T13:30:42.294Z,100193.03
2023-03-24T13:33:31.608Z,100160.81
2023-03-24T13:36:36.233Z,100184.38
2023-03-24T13:39:24.173Z,100182.28
2023-03-24T13:42:08.268Z,100146.69
2023-03-24T13:44:52.310Z,100147.44
2023-03-24T13:48:03.975Z,100173.50
2023-03-24T13:50:56.576Z,100147.22
2023-03-24T13:53:47.492Z,100145.78
2023-03-24T13:56:37.187Z,100146.03
2023-03-24T13:59:32.985Z,100132.50
2023-03-24T14:02:23.598Z,100175.66
2023-03-24T14:05:10.489Z,100173.91
2023-03-24T14:08:13.244Z,100175.44
2023-03-24T14:10:57.254Z,100146.84
2023-03-24T14:13:50.659Z,100143.78
2023-03-24T14:16:45.596Z,100182.56
2023-03-24T14:19:33.173Z,100175.44
2023-03-24T14:22:23.365Z,100099.34
2023-03-24T14:25:23.223Z,100124.78
2023-03-24T14:28:24.184Z,100150.47
2023-03-24T14:31:24.525Z,100151.09
2023-03-24T14:34:14.958Z,100134.81
2023-03-24T14:37:01.708Z,100159.91
2023-03-24T14:39:48.312Z,100162.59
2023-03-24T14:42:56.576Z,100158.34
2023-03-24T14:46:00.151Z,100160.81
2023-03-24T14:48:57.739Z,100130.22
2023-03-24T14:51:44.777Z,100128.28
2023-03-24T14:54:34.239Z,100159.03
2023-03-24T14:57:22.355Z,100140.97
2023-03-24T15:00:12.106Z,100154.22
2023-03-24T15:03:00.286Z,100169.88
2023-03-24T15:06:23.441Z,100159.13
2023-03-24T15:09:11.780Z,100162.66
2023-03-24T15:11:59.011Z,100170.56
2023-03-24T15:14:45.485Z,100134.50
2023-03-24T15:17:29.641Z,100160.28
2023-03-24T15:20:23.980Z,100158.25
2023-03-24T15:23:09.405Z,100117.97
2023-03-24T15:25:56.060Z,100158.53
2023-03-24T15:28:40.930Z,100150.88
2023-03-24T15:31:30.394Z,100150.84
2023-03-24T15:34:27.997Z,100151.41
2023-03-24T15:37:22.137Z,100107.47
2023-03-24T15:40:15.570Z,100145.22
2023-03-24T15:43:03.941Z,100138.22
2023-03-24T15:46:04.677Z,100144.91
2023-03-24T15:48:54.437Z,100119.88
2023-03-24T15:51:48.984Z,100118.59
2023-03-24T15:54:41.194Z,100118.28
2023-03-24T15:57:26.704Z,100155.66
2023-03-24T16:00:17.821Z,100144.81
2023-03-24T16:03:05.343Z,100154.81
2023-03-24T16:05:51.720Z,100149.56
2023-03-24T16:08:39.310Z,100163.13
2023-03-24T16:11:23.434Z,100122.09
2023-03-24T16:14:21.812Z,100134.28
2023-03-24T16:17:07.430Z,100135.59
2023-03-24T16:19:51.479Z,100139.38
2023-03-24T16:22:35.897Z,100137.72
2023-03-24T16:25:19.848Z,100162.88
2023-03-24T16:28:04.530Z,100136.84
2023-03-24T16:30:54.307Z,100139.97
2023-03-24T16:33:40.163Z,100171.22
2023-03-24T16:36:26.725Z,100168.56
2023-03-24T16:39:17.089Z,100145.31
2023-03-24T16:42:01.277Z,100179.63
2023-03-24T16:44:46.534Z,100146.03
2023-03-24T16:47:30.564Z,100179.81
2023-03-24T16:50:33.667Z,100158.31
2023-03-24T16:53:17.784Z,100150.28
2023-03-24T16:56:01.604Z,100191.44
2023-03-24T16:58:46.491Z,100191.81
2023-03-24T17:01:33.554Z,100178.00
2023-03-24T17:04:19.751Z,100151.56
2023-03-24T17:07:06.398Z,100138.25
2023-03-24T17:09:50.467Z,100153.00
2023-03-24T17:12:34.652Z,100185.16
2023-03-24T17:15:22.120Z,100184.50
2023-03-24T17:18:08.455Z,100175.34
2023-03-24T17:20:52.709Z,100181.91
2023-03-24T17:23:38.566Z,100176.38
2023-03-24T17:26:23.476Z,100164.09
2023-03-24T17:29:07.703Z,100147.44
2023-03-24T17:31:51.777Z,100147.69
2023-03-24T17:34:35.729Z,100139.00
2023-03-24T17:37:19.635Z,100139.97
2023-03-24T17:40:09.690Z,100136.59
2023-03-24T17:42:53.620Z,100185.56
2023-03-24T17:45:37.573Z,100141.25
2023-03-24T17:48:21.568Z,100148.34
2023-03-24T17:51:06.430Z,100176.28
2023-03-24T17:53:50.833Z,100130.03
2023-03-24T17:56:36.362Z,100141.97
2023-03-24T17:59:20.201Z,100196.72
2023-03-24T18:02:04.188Z,100183.03
2023-03-24T18:04:48.191Z,100109.38
2023-03-24T18:07:32.371Z,100200.41
2023-03-24T18:10:16.352Z,100192.28
2023-03-24T18:13:02.218Z,100205.00
2023-03-24T18:15:46.458Z,100156.41
2023-03-24T18:18:30.672Z,100182.19
2023-03-24T18:21:14.775Z,100147.66
2023-03-24T18:23:58.783Z,100189.19
2023-03-24T18:26:42.760Z,100190.41
2023-03-24T18:29:28.309Z,100176.03
2023-03-24T18:32:12.675Z,100159.34
2023-03-24T18:35:00.893Z,100188.69
2023-03-24T18:37:45.759Z,100172.28
2023-03-24T18:40:29.611Z,100110.69
2023-03-24T18:43:13.597Z,100152.53
2023-03-24T18:45:59.252Z,100194.03
2023-03-24T18:48:44.434Z,100154.13
2023-03-24T18:51:28.823Z,100194.75
2023-03-24T18:54:13.977Z,100186.03
2023-03-24T18:56:57.996Z,100149.84
2023-03-24T18:59:42.430Z,100180.25
2023-03-24T19:02:28.013Z,100175.94
2023-03-24T19:05:12.896Z,100142.06
2023-03-24T19:07:56.872Z,100141.31
2023-03-24T19:10:40.834Z,100141.22
2023-03-24T19:13:24.935Z,100128.56
2023-03-24T19:16:11.257Z,100127.75
2023-03-24T19:18:58.090Z,100158.53
2023-03-24T19:21:42.159Z,100182.13
2023-03-24T19:24:26.482Z,100133.44
2023-03-24T19:27:10.527Z,100173.34
2023-03-24T19:29:54.607Z,100186.13
2023-03-24T19:32:38.781Z,100172.38
2023-03-24T19:35:24.329Z,100177.28
2023-03-24T19:38:08.521Z,100134.72
2023-03-24T19:40:53.966Z,100092.28
2023-03-24T19:43:38.012Z,100166.66
2023-03-24T19:46:22.197Z,100160.91
2023-03-24T19:49:06.451Z,100160.78
2023-03-24T19:51:52.020Z,100170.19
2023-03-24T19:54:36.144Z,100119.78
2023-03-24T19:57:20.397Z,100113.50
2023-03-24T20:00:06.434Z,100159.22
2023-03-24T20:02:50.502Z,100106.19
2023-03-24T20:05:34.878Z,100140.13
2023-03-24T20:08:20.687Z,100077.44
2023-03-24T20:11:09.553Z,100108.44
2023-03-24T20:13:53.492Z,100125.59
2023-03-24T20:16:37.451Z,100147.81
2023-03-24T20:19:21.473Z,100108.66
2023-03-24T20:22:05.423Z,100114.84
2023-03-24T20:24:50.994Z,100109.38
2023-03-24T20:27:34.997Z,100099.63
2023-03-24T20:30:20.941Z,100136.72
2023-03-24T20:33:05.048Z,100145.47
2023-03-24T20:35:49.300Z,100129.81
2023-03-24T20:38:33.577Z,100090.16
2023-03-24T20:41:19.695Z,100133.19
2023-03-24T20:44:03.664Z,100086.78
2023-03-24T20:46:47.611Z,100080.03
2023-03-24T20:49:31.575Z,100113.34
2023-03-24T20:52:15.659Z,100124.78
2023-03-24T20:55:01.283Z,100116.97
2023-03-24T20:57:47.694Z,100079.75
2023-03-24T21:00:31.893Z,100034.94
2023-03-24T21:03:16.009Z,100114.78
2023-03-24T21:06:00.145Z,100104.31
2023-03-24T21:08:45.227Z,100020.91
2023-03-24T21:11:31.347Z,100071.22
2023-03-24T21:14:16.910Z,100110.25
2023-03-24T21:17:00.865Z,100066.38
2023-03-24T21:19:47.038Z,100043.84
2023-03-24T21:22:47.373Z,100101.88
2023-03-24T21:25:32.792Z,100073.50
2023-03-24T21:28:18.046Z,100048.25
2023-03-24T21:31:08.562Z,100096.84
2023-03-24T21:33:53.933Z,100069.03
2023-03-24T21:36:38.673Z,100060.63
2023-03-24T21:39:24.106Z,100081.66
2023-03-24T21:42:08.009Z,100037.66
2023-03-24T21:44:51.903Z,100025.88
2023-03-24T21:47:37.578Z,100087.94
2023-03-24T21:50:23.489Z,100030.44
2023-03-24T21:53:15.427Z,100091.91
2023-03-24T21:56:04.846Z,100085.59
2023-03-24T21:58:48.932Z,100085.84
2023-03-24T22:01:34.203Z,100078.09
2023-03-24T22:04:19.809Z,100030.63
2023-03-24T22:07:06.928Z,100002.53
2023-03-24T22:09:52.549Z,100050.16
2023-03-24T22:12:37.087Z,100040.06
2023-03-24T22:15:21.744Z,100032.34
2023-03-24T22:18:06.145Z,100078.84
2023-03-24T22:21:04.426Z,100077.16
2023-03-24T22:23:48.439Z,100044.44
2023-03-24T22:26:32.427Z,100057.56
2023-03-24T22:29:16.335Z,100056.63
2023-03-24T22:32:00.441Z,100060.69
2023-03-24T22:34:44.502Z,100058.47
2023-03-24T22:37:29.927Z,100007.97
2023-03-24T22:40:14.063Z,100057.28
2023-03-24T22:42:58.011Z,100054.28
2023-03-24T22:45:41.989Z,100049.47
2023-03-24T22:48:26.114Z,100009.22
2023-03-24T22:51:12.697Z,100040.16
2023-03-24T22:53:58.305Z,99999.38
2023-03-24T22:56:42.300Z,100006.91
2023-03-24T22:59:26.666Z,100043.31
2023-03-24T23:02:10.830Z,100007.13
2023-03-24T23:04:55.170Z,100002.91
2023-03-24T23:07:39.452Z,100035.03
2023-03-24T23:10:25.682Z,100035.78
2023-03-24T23:13:10.803Z,99987.06
2023-03-24T23:15:54.948Z,100026.78
2023-03-24T23:18:39.136Z,100027.34
2023-03-24T23:21:23.124Z,99995.34
2023-03-24T23:24:07.570Z,100029.16
2023-03-24T23:26:53.184Z,100016.31
2023-03-24T23:29:40.602Z,99990.63
2023-03-24T23:32:24.649Z,100003.16
2023-03-24T23:35:10.232Z,99986.06
2023-03-24T23:37:54.315Z,100010.97
2023-03-24T23:40:38.410Z,99980.25
2023-03-24T23:43:23.846Z,100009.09
2023-03-24T23:46:08.871Z,99986.25
2023-03-24T23:48:52.815Z,99998.53
2023-03-24T23:51:36.838Z,100011.94
2023-03-24T23:54:20.895Z,100004.13
2023-03-24T23:57:05.115Z,99962.75
2023-03-24T23:59:53.191Z,99960.72
